Ramona, KS (67475)

7:03 AM CDT on September 17, 2014 (GMT -0500)
South Cottonwood Hillsboro | Change Station
CLOSE
Current Station
Personal Weather Station
Location: Hillsboro, KS
Elevation: 1388 ft
Nearby Weather Stations

Elev 1388 ft 38.30 °N, 97.21 °W | Updated 2 seconds ago

Mostly Cloudy
Mostly Cloudy
65.4 °F
Feels Like 65.4 °F
N
0.0
Wind Variable Wind from West
Gusts 1.0 mph

Today
High -- | Low -- °F
--% Chance of Precip.
Yesterday
High -- | Low -- °F
Precip. -- in
7:11 AM 7:33 PM
Last Quarter, 36% visible
Pressure 29.85 in
Visibility 4.0 miles
Clouds Clear
Dew Point 62 °F
Humidity 90%
Rainfall 0.00 in
Snow Depth Not available.
UV 0 out of 12
Pollen 7.90 out of 12
Air Quality Not available.
Flu Activity Not available.
METAR KSLN 171153Z 19006KT 4SM BR CLR 19/18 A2988 RMK AO2 SLP108 T01890178 10206 20189 56012

More Conditions Fewer Conditions

Pressure 29.85 in
Visibility 4.0 miles
Clouds Clear
Dew Point 62 °F
Humidity 90%
Rainfall 0.00 in
Snow Depth Not available.
UV 0 out of 12
Pollen 7.90 out of 12
Air Quality Not available.
Flu Activity Not available.
METAR KSLN 171153Z 19006KT 4SM BR CLR 19/18 A2988 RMK AO2 SLP108 T01890178 10206 20189 56012

More Conditions Fewer Conditions

10-Day Weather Forecast

Almanac

Astronomy

Sep. 17, 2014 Rise Set
Actual Time 7:11 AM CDT 7:33 PM CDT
Civil Twilight 6:45 AM CDT 7:59 PM CDT
Nautical Twilight 6:13 AM CDT 8:30 PM CDT
Astronomical Twilight 5:42 AM CDT 9:02 PM CDT
Moon 1:15 AM CDT 3:41 PM CDT
Length of Visible Light 13h 14m
Length of Day
12h 21m
Tomorrow will be 2m 28s shorter.
Last Quarter, 36% of the Moon is Illuminated
Today
Last Quarter
Sep 24
New
Oct 1
First Quarter
Oct 8
Full
Oct 15
Last Quarter

Today's Extremes

State Highs State Lows

Community

WunderPhotos

Upload Photos

1,754,005 photos uploaded!

Nearby

Snow Depth

Station Depth Elevation
No new snow has been reported.

Earthquake Activity

City Distance Mag. Time & Date
Medford, Oklahoma 126 miles 3.2 6:09 AM CDT
2014-09-17
Medford, Oklahoma 126 miles 3.3 5:35 PM CDT
2014-09-16
Cherokee, Oklahoma 136 miles 2.6 2:21 PM CDT
2014-09-16
Medford, Oklahoma 126 miles 2.6 3:18 AM CDT
2014-09-16
Minimum magnitude displayed is 2.5.

Coastal Water Temperatures

Place Temperature
No Stations Reporting

Nearby Weather Stations